sensor_id;sensor_type;location;lat;lon;timestamp;P1;durP1;ratioP1;P2;durP2;ratioP2
5742;SDS011;2896;53.500;10.020;2023-04-01T00:01:22;19.63;;;9.90;;
5742;SDS011;2896;53.500;10.020;2023-04-01T00:03:49;20.90;;;9.57;;
5742;SDS011;2896;53.500;10.020;2023-04-01T00:06:17;19.83;;;9.07;;
5742;SDS011;2896;53.500;10.020;2023-04-01T00:08:44;16.13;;;8.47;;
5742;SDS011;2896;53.500;10.020;2023-04-01T00:11:12;14.07;;;9.20;;
5742;SDS011;2896;53.500;10.020;2023-04-01T00:13:39;17.13;;;9.00;;
5742;SDS011;2896;53.500;10.020;2023-04-01T00:16:06;15.10;;;8.03;;
5742;SDS011;2896;53.500;10.020;2023-04-01T00:18:33;18.13;;;8.53;;
5742;SDS011;2896;53.500;10.020;2023-04-01T00:21:00;17.60;;;8.40;;
5742;SDS011;2896;53.500;10.020;2023-04-01T00:23:28;14.67;;;8.07;;
5742;SDS011;2896;53.500;10.020;2023-04-01T00:25:55;18.00;;;9.03;;
5742;SDS011;2896;53.500;10.020;2023-04-01T00:28:22;17.40;;;8.23;;
5742;SDS011;2896;53.500;10.020;2023-04-01T00:30:48;17.37;;;8.00;;
5742;SDS011;2896;53.500;10.020;2023-04-01T00:33:15;16.77;;;8.37;;
5742;SDS011;2896;53.500;10.020;2023-04-01T00:35:42;19.30;;;8.60;;
5742;SDS011;2896;53.500;10.020;2023-04-01T00:38:09;13.83;;;7.60;;
5742;SDS011;2896;53.500;10.020;2023-04-01T00:40:38;15.33;;;7.73;;
5742;SDS011;2896;53.500;10.020;2023-04-01T00:43:09;13.43;;;8.40;;
5742;SDS011;2896;53.500;10.020;2023-04-01T00:45:39;19.20;;;8.10;;
5742;SDS011;2896;53.500;10.020;2023-04-01T00:48:08;13.57;;;7.50;;
5742;SDS011;2896;53.500;10.020;2023-04-01T00:50:38;19.23;;;8.57;;
5742;SDS011;2896;53.500;10.020;2023-04-01T00:53:06;9.30;;;7.17;;
5742;SDS011;2896;53.500;10.020;2023-04-01T00:55:35;17.47;;;8.20;;
5742;SDS011;2896;53.500;10.020;2023-04-01T00:58:07;14.80;;;8.03;;
5742;SDS011;2896;53.500;10.020;2023-04-01T01:00:38;21.63;;;9.23;;
5742;SDS011;2896;53.500;10.020;2023-04-01T01:03:04;13.00;;;7.97;;
5742;SDS011;2896;53.500;10.020;2023-04-01T01:05:34;16.50;;;9.57;;
5742;SDS011;2896;53.500;10.020;2023-04-01T01:08:13;9.70;;;7.23;;
5742;SDS011;2896;53.500;10.020;2023-04-01T01:10:45;14.33;;;8.63;;
5742;SDS011;2896;53.500;10.020;2023-04-01T01:13:16;22.23;;;8.53;;
5742;SDS011;2896;53.500;10.020;2023-04-01T01:15:46;15.30;;;7.90;;
5742;SDS011;2896;53.500;10.020;2023-04-01T01:18:19;13.80;;;8.47;;
5742;SDS011;2896;53.500;10.020;2023-04-01T01:20:57;17.60;;;8.20;;
5742;SDS011;2896;53.500;10.020;2023-04-01T01:23:49;12.50;;;8.00;;
5742;SDS011;2896;53.500;10.020;2023-04-01T01:26:48;14.50;;;8.00;;
5742;SDS011;2896;53.500;10.020;2023-04-01T01:29:33;15.47;;;8.07;;
5742;SDS011;2896;53.500;10.020;2023-04-01T01:32:24;15.03;;;8.10;;
5742;SDS011;2896;53.500;10.020;2023-04-01T01:37:53;14.53;;;7.53;;
5742;SDS011;2896;53.500;10.020;2023-04-01T01:40:23;22.17;;;8.13;;
5742;SDS011;2896;53.500;10.020;2023-04-01T01:42:53;13.17;;;7.70;;
5742;SDS011;2896;53.500;10.020;2023-04-01T01:45:23;12.80;;;7.90;;
5742;SDS011;2896;53.500;10.020;2023-04-01T01:47:52;21.40;;;7.87;;
5742;SDS011;2896;53.500;10.020;2023-04-01T01:50:22;14.33;;;7.37;;
5742;SDS011;2896;53.500;10.020;2023-04-01T01:52:59;18.53;;;8.40;;
5742;SDS011;2896;53.500;10.020;2023-04-01T01:55:31;16.20;;;8.47;;
5742;SDS011;2896;53.500;10.020;2023-04-01T01:57:59;27.67;;;9.30;;
5742;SDS011;2896;53.500;10.020;2023-04-01T02:00:30;18.67;;;8.10;;
5742;SDS011;2896;53.500;10.020;2023-04-01T02:02:58;16.63;;;7.40;;
5742;SDS011;2896;53.500;10.020;2023-04-01T02:05:27;18.77;;;8.43;;
5742;SDS011;2896;53.500;10.020;2023-04-01T02:07:57;20.40;;;8.20;;
5742;SDS011;2896;53.500;10.020;2023-04-01T02:10:28;17.00;;;8.30;;
5742;SDS011;2896;53.500;10.020;2023-04-01T02:12:57;13.23;;;7.33;;
5742;SDS011;2896;53.500;10.020;2023-04-01T02:15:29;14.80;;;7.90;;
5742;SDS011;2896;53.500;10.020;2023-04-01T02:17:58;17.60;;;8.67;;
5742;SDS011;2896;53.500;10.020;2023-04-01T02:20:26;10.83;;;7.50;;
5742;SDS011;2896;53.500;10.020;2023-04-01T02:22:55;12.37;;;7.10;;
5742;SDS011;2896;53.500;10.020;2023-04-01T02:25:25;17.83;;;7.93;;
5742;SDS011;2896;53.500;10.020;2023-04-01T02:27:54;9.80;;;7.77;;
5742;SDS011;2896;53.500;10.020;2023-04-01T02:30:24;15.20;;;8.40;;
5742;SDS011;2896;53.500;10.020;2023-04-01T02:32:52;17.37;;;9.60;;
5742;SDS011;2896;53.500;10.020;2023-04-01T02:35:20;16.47;;;8.90;;
5742;SDS011;2896;53.500;10.020;2023-04-01T02:37:48;19.10;;;8.73;;
5742;SDS011;2896;53.500;10.020;2023-04-01T02:40:16;22.73;;;9.60;;
5742;SDS011;2896;53.500;10.020;2023-04-01T02:42:44;19.00;;;9.27;;
5742;SDS011;2896;53.500;10.020;2023-04-01T02:45:11;12.80;;;8.50;;
5742;SDS011;2896;53.500;10.020;2023-04-01T02:47:38;19.93;;;8.83;;
5742;SDS011;2896;53.500;10.020;2023-04-01T02:50:06;21.57;;;9.93;;
5742;SDS011;2896;53.500;10.020;2023-04-01T02:52:33;15.40;;;8.73;;
5742;SDS011;2896;53.500;10.020;2023-04-01T02:55:01;13.90;;;8.10;;
5742;SDS011;2896;53.500;10.020;2023-04-01T02:57:28;19.90;;;9.80;;
5742;SDS011;2896;53.500;10.020;2023-04-01T02:59:55;26.13;;;12.93;;
5742;SDS011;2896;53.500;10.020;2023-04-01T03:02:22;19.07;;;9.60;;
5742;SDS011;2896;53.500;10.020;2023-04-01T03:04:48;17.67;;;8.30;;
5742;SDS011;2896;53.500;10.020;2023-04-01T03:07:15;18.10;;;8.97;;
5742;SDS011;2896;53.500;10.020;2023-04-01T03:09:42;15.90;;;8.50;;
5742;SDS011;2896;53.500;10.020;2023-04-01T03:12:10;12.70;;;8.03;;
5742;SDS011;2896;53.500;10.020;2023-04-01T03:14:36;19.47;;;8.80;;
5742;SDS011;2896;53.500;10.020;2023-04-01T03:17:03;25.23;;;9.17;;
5742;SDS011;2896;53.500;10.020;2023-04-01T03:19:30;12.83;;;8.17;;
5742;SDS011;2896;53.500;10.020;2023-04-01T03:21:57;13.50;;;8.30;;
5742;SDS011;2896;53.500;10.020;2023-04-01T03:24:23;14.47;;;8.30;;
5742;SDS011;2896;53.500;10.020;2023-04-01T03:26:50;15.23;;;8.50;;
5742;SDS011;2896;53.500;10.020;2023-04-01T03:29:18;13.93;;;8.50;;
5742;SDS011;2896;53.500;10.020;2023-04-01T03:31:44;17.73;;;8.90;;
5742;SDS011;2896;53.500;10.020;2023-04-01T03:34:11;14.83;;;7.60;;
5742;SDS011;2896;53.500;10.020;2023-04-01T03:36:38;22.07;;;8.80;;
5742;SDS011;2896;53.500;10.020;2023-04-01T03:39:04;16.93;;;8.80;;
5742;SDS011;2896;53.500;10.020;2023-04-01T03:41:31;17.00;;;9.07;;
5742;SDS011;2896;53.500;10.020;2023-04-01T03:43:58;15.57;;;8.57;;
5742;SDS011;2896;53.500;10.020;2023-04-01T03:46:26;16.73;;;8.70;;
5742;SDS011;2896;53.500;10.020;2023-04-01T03:48:53;22.90;;;8.60;;
5742;SDS011;2896;53.500;10.020;2023-04-01T03:51:19;14.60;;;8.60;;
5742;SDS011;2896;53.500;10.020;2023-04-01T03:53:46;17.77;;;9.50;;
5742;SDS011;2896;53.500;10.020;2023-04-01T03:56:13;25.93;;;9.50;;
5742;SDS011;2896;53.500;10.020;2023-04-01T03:58:39;14.47;;;9.77;;
5742;SDS011;2896;53.500;10.020;2023-04-01T04:01:13;17.27;;;8.90;;
5742;SDS011;2896;53.500;10.020;2023-04-01T04:03:41;20.20;;;10.30;;
5742;SDS011;2896;53.500;10.020;2023-04-01T04:06:10;27.73;;;10.43;;
5742;SDS011;2896;53.500;10.020;2023-04-01T04:08:38;23.33;;;9.97;;
5742;SDS011;2896;53.500;10.020;2023-04-01T04:11:04;19.07;;;10.20;;
5742;SDS011;2896;53.500;10.020;2023-04-01T04:13:31;23.50;;;8.67;;
5742;SDS011;2896;53.500;10.020;2023-04-01T04:15:58;19.73;;;10.57;;
5742;SDS011;2896;53.500;10.020;2023-04-01T04:18:24;22.93;;;9.50;;
5742;SDS011;2896;53.500;10.020;2023-04-01T04:20:52;23.00;;;12.30;;
5742;SDS011;2896;53.500;10.020;2023-04-01T04:23:19;21.60;;;10.30;;
5742;SDS011;2896;53.500;10.020;2023-04-01T04:25:53;24.47;;;11.10;;
5742;SDS011;2896;53.500;10.020;2023-04-01T04:28:20;19.63;;;9.67;;
5742;SDS011;2896;53.500;10.020;2023-04-01T04:30:47;19.60;;;8.80;;
5742;SDS011;2896;53.500;10.020;2023-04-01T04:33:14;15.43;;;8.33;;
5742;SDS011;2896;53.500;10.020;2023-04-01T04:35:41;24.97;;;8.97;;
5742;SDS011;2896;53.500;10.020;2023-04-01T04:38:09;20.97;;;9.30;;
5742;SDS011;2896;53.500;10.020;2023-04-01T04:40:35;16.83;;;8.90;;
5742;SDS011;2896;53.500;10.020;2023-04-01T04:43:02;24.23;;;9.70;;
5742;SDS011;2896;53.500;10.020;2023-04-01T04:45:29;17.00;;;12.80;;
5742;SDS011;2896;53.500;10.020;2023-04-01T04:47:56;15.27;;;9.90;;
5742;SDS011;2896;53.500;10.020;2023-04-01T04:50:23;14.70;;;9.57;;
5742;SDS011;2896;53.500;10.020;2023-04-01T04:52:50;21.03;;;10.37;;
5742;SDS011;2896;53.500;10.020;2023-04-01T04:55:18;19.70;;;10.40;;
5742;SDS011;2896;53.500;10.020;2023-04-01T04:57:45;19.93;;;10.40;;
5742;SDS011;2896;53.500;10.020;2023-04-01T05:00:12;22.40;;;9.63;;
5742;SDS011;2896;53.500;10.020;2023-04-01T05:02:39;25.20;;;9.23;;
5742;SDS011;2896;53.500;10.020;2023-04-01T05:05:06;18.07;;;10.03;;
5742;SDS011;2896;53.500;10.020;2023-04-01T05:07:33;16.60;;;9.27;;
5742;SDS011;2896;53.500;10.020;2023-04-01T05:10:00;14.67;;;9.33;;
5742;SDS011;2896;53.500;10.020;2023-04-01T05:12:28;17.30;;;9.60;;
5742;SDS011;2896;53.500;10.020;2023-04-01T05:14:55;22.07;;;10.03;;
5742;SDS011;2896;53.500;10.020;2023-04-01T05:17:22;22.00;;;11.90;;
5742;SDS011;2896;53.500;10.020;2023-04-01T05:19:49;24.03;;;10.80;;
5742;SDS011;2896;53.500;10.020;2023-04-01T05:22:15;19.50;;;11.30;;
5742;SDS011;2896;53.500;10.020;2023-04-01T05:24:42;24.00;;;11.80;;
5742;SDS011;2896;53.500;10.020;2023-04-01T05:27:09;21.10;;;11.87;;
5742;SDS011;2896;53.500;10.020;2023-04-01T05:29:37;18.30;;;11.93;;
5742;SDS011;2896;53.500;10.020;2023-04-01T05:32:04;16.30;;;10.83;;
5742;SDS011;2896;53.500;10.020;2023-04-01T05:34:30;17.13;;;10.20;;
5742;SDS011;2896;53.500;10.020;2023-04-01T05:36:57;21.00;;;11.07;;
5742;SDS011;2896;53.500;10.020;2023-04-01T05:39:23;17.63;;;10.70;;
5742;SDS011;2896;53.500;10.020;2023-04-01T05:41:50;13.97;;;9.80;;
5742;SDS011;2896;53.500;10.020;2023-04-01T05:44:17;12.43;;;9.70;;
5742;SDS011;2896;53.500;10.020;2023-04-01T05:46:45;29.63;;;16.20;;
5742;SDS011;2896;53.500;10.020;2023-04-01T05:49:11;19.10;;;9.50;;
5742;SDS011;2896;53.500;10.020;2023-04-01T05:51:38;21.80;;;10.57;;
5742;SDS011;2896;53.500;10.020;2023-04-01T05:54:05;18.43;;;12.90;;
5742;SDS011;2896;53.500;10.020;2023-04-01T05:56:32;17.70;;;10.47;;
5742;SDS011;2896;53.500;10.020;2023-04-01T05:58:58;13.57;;;10.13;;
5742;SDS011;2896;53.500;10.020;2023-04-01T06:01:25;20.30;;;10.23;;
5742;SDS011;2896;53.500;10.020;2023-04-01T06:03:53;6.23;;;4.90;;
5742;SDS011;2896;53.500;10.020;2023-04-01T06:06:22;3.77;;;3.57;;
5742;SDS011;2896;53.500;10.020;2023-04-01T06:08:51;1.67;;;1.57;;
5742;SDS011;2896;53.500;10.020;2023-04-01T06:11:20;1.83;;;1.80;;
5742;SDS011;2896;53.500;10.020;2023-04-01T06:13:58;2.43;;;1.57;;
5742;SDS011;2896;53.500;10.020;2023-04-01T06:16:39;1.77;;;1.70;;
5742;SDS011;2896;53.500;10.020;2023-04-01T06:19:24;4.30;;;1.77;;
5742;SDS011;2896;53.500;10.020;2023-04-01T06:22:01;1.53;;;1.43;;
5742;SDS011;2896;53.500;10.020;2023-04-01T06:24:55;2.57;;;1.50;;
5742;SDS011;2896;53.500;10.020;2023-04-01T06:27:42;1.57;;;1.50;;
5742;SDS011;2896;53.500;10.020;2023-04-01T06:30:24;1.00;;;1.00;;
5742;SDS011;2896;53.500;10.020;2023-04-01T06:33:07;2.10;;;1.30;;
5742;SDS011;2896;53.500;10.020;2023-04-01T06:36:08;1.40;;;1.40;;
5742;SDS011;2896;53.500;10.020;2023-04-01T06:38:53;1.70;;;1.60;;
5742;SDS011;2896;53.500;10.020;2023-04-01T06:44:29;1.43;;;1.43;;
5742;SDS011;2896;53.500;10.020;2023-04-01T06:47:17;1.57;;;1.20;;
5742;SDS011;2896;53.500;10.020;2023-04-01T06:49:56;1.80;;;1.70;;
5742;SDS011;2896;53.500;10.020;2023-04-01T06:52:34;1.40;;;1.40;;
5742;SDS011;2896;53.500;10.020;2023-04-01T06:55:13;2.83;;;1.17;;
5742;SDS011;2896;53.500;10.020;2023-04-01T06:57:49;2.03;;;1.93;;
5742;SDS011;2896;53.500;10.020;2023-04-01T07:00:21;1.80;;;1.70;;
5742;SDS011;2896;53.500;10.020;2023-04-01T07:02:54;2.50;;;1.80;;
5742;SDS011;2896;53.500;10.020;2023-04-01T07:05:28;1.10;;;1.10;;
5742;SDS011;2896;53.500;10.020;2023-04-01T07:07:59;1.80;;;1.70;;
5742;SDS011;2896;53.500;10.020;2023-04-01T07:10:31;1.63;;;1.53;;
5742;SDS011;2896;53.500;10.020;2023-04-01T07:13:02;2.60;;;1.50;;
5742;SDS011;2896;53.500;10.020;2023-04-01T07:15:35;1.77;;;1.67;;
5742;SDS011;2896;53.500;10.020;2023-04-01T07:18:08;1.30;;;1.30;;
5742;SDS011;2896;53.500;10.020;2023-04-01T07:20:41;1.00;;;1.00;;
5742;SDS011;2896;53.500;10.020;2023-04-01T07:23:13;1.43;;;1.33;;
5742;SDS011;2896;53.500;10.020;2023-04-01T07:25:47;1.30;;;1.30;;
5742;SDS011;2896;53.500;10.020;2023-04-01T07:28:17;1.40;;;1.40;;
5742;SDS011;2896;53.500;10.020;2023-04-01T07:30:46;1.80;;;1.63;;
5742;SDS011;2896;53.500;10.020;2023-04-01T07:33:22;1.37;;;1.23;;
5742;SDS011;2896;53.500;10.020;2023-04-01T07:35:54;2.20;;;1.20;;
5742;SDS011;2896;53.500;10.020;2023-04-01T07:38:28;1.30;;;1.30;;
5742;SDS011;2896;53.500;10.020;2023-04-01T07:41:03;4.60;;;1.60;;
5742;SDS011;2896;53.500;10.020;2023-04-01T07:43:40;1.50;;;1.40;;
5742;SDS011;2896;53.500;10.020;2023-04-01T07:46:21;1.70;;;1.50;;
5742;SDS011;2896;53.500;10.020;2023-04-01T07:49:00;1.30;;;1.30;;
5742;SDS011;2896;53.500;10.020;2023-04-01T07:51:34;1.50;;;1.50;;
5742;SDS011;2896;53.500;10.020;2023-04-01T07:54:09;1.40;;;1.40;;
5742;SDS011;2896;53.500;10.020;2023-04-01T07:56:44;1.43;;;1.43;;
5742;SDS011;2896;53.500;10.020;2023-04-01T07:59:16;1.27;;;1.27;;
5742;SDS011;2896;53.500;10.020;2023-04-01T08:01:49;1.33;;;1.23;;
5742;SDS011;2896;53.500;10.020;2023-04-01T08:04:33;2.80;;;1.20;;
5742;SDS011;2896;53.500;10.020;2023-04-01T08:07:12;1.60;;;1.20;;
5742;SDS011;2896;53.500;10.020;2023-04-01T08:09:44;1.00;;;1.00;;
5742;SDS011;2896;53.500;10.020;2023-04-01T08:12:21;3.97;;;1.20;;
5742;SDS011;2896;53.500;10.020;2023-04-01T08:14:56;1.03;;;1.03;;
5742;SDS011;2896;53.500;10.020;2023-04-01T08:17:35;1.50;;;1.40;;
5742;SDS011;2896;53.500;10.020;2023-04-01T08:20:14;3.90;;;1.37;;
5742;SDS011;2896;53.500;10.020;2023-04-01T08:22:52;1.20;;;1.13;;
5742;SDS011;2896;53.500;10.020;2023-04-01T08:25:25;2.50;;;1.40;;
5742;SDS011;2896;53.500;10.020;2023-04-01T08:27:53;1.13;;;1.13;;
5742;SDS011;2896;53.500;10.020;2023-04-01T08:30:25;1.13;;;0.90;;
5742;SDS011;2896;53.500;10.020;2023-04-01T08:32:58;1.13;;;1.13;;
5742;SDS011;2896;53.500;10.020;2023-04-01T08:35:30;1.13;;;1.13;;
5742;SDS011;2896;53.500;10.020;2023-04-01T08:38:05;0.93;;;0.93;;
5742;SDS011;2896;53.500;10.020;2023-04-01T08:40:57;1.97;;;1.87;;
5742;SDS011;2896;53.500;10.020;2023-04-01T08:43:34;1.20;;;1.10;;
5742;SDS011;2896;53.500;10.020;2023-04-01T08:46:34;1.30;;;1.20;;
5742;SDS011;2896;53.500;10.020;2023-04-01T08:49:36;2.13;;;1.30;;
5742;SDS011;2896;53.500;10.020;2023-04-01T08:52:27;1.40;;;1.40;;
5742;SDS011;2896;53.500;10.020;2023-04-01T09:01:11;0.93;;;0.83;;
5742;SDS011;2896;53.500;10.020;2023-04-01T09:03:51;1.27;;;1.27;;
5742;SDS011;2896;53.500;10.020;2023-04-01T09:06:35;1.17;;;1.17;;
5742;SDS011;2896;53.500;10.020;2023-04-01T09:09:21;1.30;;;1.30;;
5742;SDS011;2896;53.500;10.020;2023-04-01T09:12:15;1.43;;;1.30;;
5742;SDS011;2896;53.500;10.020;2023-04-01T09:20:53;0.90;;;0.90;;
5742;SDS011;2896;53.500;10.020;2023-04-01T09:23:36;1.03;;;1.03;;
5742;SDS011;2896;53.500;10.020;2023-04-01T09:26:15;1.73;;;1.20;;
5742;SDS011;2896;53.500;10.020;2023-04-01T09:28:53;1.47;;;1.37;;
5742;SDS011;2896;53.500;10.020;2023-04-01T09:37:21;1.80;;;1.70;;
5742;SDS011;2896;53.500;10.020;2023-04-01T09:40:02;3.27;;;1.50;;
5742;SDS011;2896;53.500;10.020;2023-04-01T09:42:43;1.60;;;1.50;;
5742;SDS011;2896;53.500;10.020;2023-04-01T09:45:16;1.57;;;1.47;;
5742;SDS011;2896;53.500;10.020;2023-04-01T09:47:57;1.30;;;1.30;;
5742;SDS011;2896;53.500;10.020;2023-04-01T09:50:33;1.30;;;1.20;;
5742;SDS011;2896;53.500;10.020;2023-04-01T09:53:13;1.40;;;1.40;;
5742;SDS011;2896;53.500;10.020;2023-04-01T09:55:55;1.63;;;1.53;;
5742;SDS011;2896;53.500;10.020;2023-04-01T09:58:51;2.03;;;1.27;;
5742;SDS011;2896;53.500;10.020;2023-04-01T10:02:01;1.23;;;1.23;;
5742;SDS011;2896;53.500;10.020;2023-04-01T10:05:04;1.27;;;1.10;;
5742;SDS011;2896;53.500;10.020;2023-04-01T10:10:57;1.10;;;1.10;;
5742;SDS011;2896;53.500;10.020;2023-04-01T10:13:49;1.33;;;1.23;;
5742;SDS011;2896;53.500;10.020;2023-04-01T10:16:56;1.00;;;1.00;;
5742;SDS011;2896;53.500;10.020;2023-04-01T10:19:49;2.00;;;1.10;;
5742;SDS011;2896;53.500;10.020;2023-04-01T10:22:35;1.00;;;1.00;;
5742;SDS011;2896;53.500;10.020;2023-04-01T10:25:22;1.27;;;1.27;;
5742;SDS011;2896;53.500;10.020;2023-04-01T10:28:24;1.30;;;1.20;;
5742;SDS011;2896;53.500;10.020;2023-04-01T10:37:17;1.20;;;1.20;;
5742;SDS011;2896;53.500;10.020;2023-04-01T10:46:07;1.17;;;1.10;;
5742;SDS011;2896;53.500;10.020;2023-04-01T10:54:49;1.30;;;1.30;;
5742;SDS011;2896;53.500;10.020;2023-04-01T10:57:41;4.60;;;1.40;;
5742;SDS011;2896;53.500;10.020;2023-04-01T11:00:32;2.10;;;1.40;;
5742;SDS011;2896;53.500;10.020;2023-04-01T11:03:41;1.23;;;1.13;;
5742;SDS011;2896;53.500;10.020;2023-04-01T11:19:32;0.90;;;0.90;;
5742;SDS011;2896;53.500;10.020;2023-04-01T11:22:28;1.83;;;1.20;;
5742;SDS011;2896;53.500;10.020;2023-04-01T11:25:23;1.00;;;1.00;;
5742;SDS011;2896;53.500;10.020;2023-04-01T11:28:16;1.10;;;1.10;;
5742;SDS011;2896;53.500;10.020;2023-04-01T11:30:58;1.63;;;1.37;;
5742;SDS011;2896;53.500;10.020;2023-04-01T11:33:43;2.10;;;1.40;;
5742;SDS011;2896;53.500;10.020;2023-04-01T11:36:20;1.20;;;1.20;;
5742;SDS011;2896;53.500;10.020;2023-04-01T11:39:05;1.03;;;1.00;;
5742;SDS011;2896;53.500;10.020;2023-04-01T11:41:49;1.53;;;1.23;;
5742;SDS011;2896;53.500;10.020;2023-04-01T11:44:23;1.00;;;1.00;;
5742;SDS011;2896;53.500;10.020;2023-04-01T11:46:59;1.10;;;1.10;;
5742;SDS011;2896;53.500;10.020;2023-04-01T11:49:46;2.00;;;2.00;;
5742;SDS011;2896;53.500;10.020;2023-04-01T11:52:21;1.23;;;1.20;;
5742;SDS011;2896;53.500;10.020;2023-04-01T11:55:06;1.50;;;1.50;;
5742;SDS011;2896;53.500;10.020;2023-04-01T11:58:06;1.70;;;1.60;;
5742;SDS011;2896;53.500;10.020;2023-04-01T12:01:05;1.63;;;1.53;;
5742;SDS011;2896;53.500;10.020;2023-04-01T12:06:43;2.70;;;2.30;;
5742;SDS011;2896;53.500;10.020;2023-04-01T12:09:16;2.03;;;1.70;;
5742;SDS011;2896;53.500;10.020;2023-04-01T12:11:51;1.50;;;1.40;;
5742;SDS011;2896;53.500;10.020;2023-04-01T12:14:35;2.50;;;2.30;;
5742;SDS011;2896;53.500;10.020;2023-04-01T12:17:09;2.80;;;2.60;;
5742;SDS011;2896;53.500;10.020;2023-04-01T12:19:48;4.97;;;3.17;;
5742;SDS011;2896;53.500;10.020;2023-04-01T12:22:25;3.13;;;2.93;;
5742;SDS011;2896;53.500;10.020;2023-04-01T12:25:07;5.13;;;3.03;;
5742;SDS011;2896;53.500;10.020;2023-04-01T12:27:46;2.93;;;2.73;;
5742;SDS011;2896;53.500;10.020;2023-04-01T12:30:30;2.97;;;2.77;;
5742;SDS011;2896;53.500;10.020;2023-04-01T12:33:13;5.07;;;3.00;;
5742;SDS011;2896;53.500;10.020;2023-04-01T12:36:01;2.40;;;2.30;;
5742;SDS011;2896;53.500;10.020;2023-04-01T12:38:41;2.90;;;2.57;;
5742;SDS011;2896;53.500;10.020;2023-04-01T12:41:17;3.00;;;2.80;;
5742;SDS011;2896;53.500;10.020;2023-04-01T12:43:59;4.83;;;2.80;;
5742;SDS011;2896;53.500;10.020;2023-04-01T12:46:57;3.80;;;3.50;;
5742;SDS011;2896;53.500;10.020;2023-04-01T12:49:44;3.13;;;2.97;;
5742;SDS011;2896;53.500;10.020;2023-04-01T12:52:23;3.33;;;2.93;;
5742;SDS011;2896;53.500;10.020;2023-04-01T13:01:19;3.47;;;2.83;;
5742;SDS011;2896;53.500;10.020;2023-04-01T13:04:14;4.67;;;4.27;;
5742;SDS011;2896;53.500;10.020;2023-04-01T13:10:15;3.60;;;3.50;;
5742;SDS011;2896;53.500;10.020;2023-04-01T13:12:59;6.83;;;3.77;;
5742;SDS011;2896;53.500;10.020;2023-04-01T13:15:47;3.43;;;3.13;;
5742;SDS011;2896;53.500;10.020;2023-04-01T13:18:23;3.20;;;3.00;;
5742;SDS011;2896;53.500;10.020;2023-04-01T13:21:00;5.90;;;3.30;;
5742;SDS011;2896;53.500;10.020;2023-04-01T13:23:34;3.67;;;3.40;;
5742;SDS011;2896;53.500;10.020;2023-04-01T13:26:12;3.90;;;3.60;;
5742;SDS011;2896;53.500;10.020;2023-04-01T13:28:47;3.30;;;3.00;;
5742;SDS011;2896;53.500;10.020;2023-04-01T13:31:34;3.47;;;3.17;;
5742;SDS011;2896;53.500;10.020;2023-04-01T13:34:21;6.17;;;2.70;;
5742;SDS011;2896;53.500;10.020;2023-04-01T13:36:59;4.40;;;3.03;;
5742;SDS011;2896;53.500;10.020;2023-04-01T13:39:47;3.63;;;3.40;;
5742;SDS011;2896;53.500;10.020;2023-04-01T13:42:24;5.70;;;3.53;;
5742;SDS011;2896;53.500;10.020;2023-04-01T13:44:59;4.03;;;3.73;;
5742;SDS011;2896;53.500;10.020;2023-04-01T13:47:40;3.50;;;3.27;;
5742;SDS011;2896;53.500;10.020;2023-04-01T13:50:37;3.70;;;3.23;;
5742;SDS011;2896;53.500;10.020;2023-04-01T13:53:27;5.47;;;3.27;;
5742;SDS011;2896;53.500;10.020;2023-04-01T13:56:15;4.60;;;3.20;;
5742;SDS011;2896;53.500;10.020;2023-04-01T13:58:50;3.70;;;3.40;;
5742;SDS011;2896;53.500;10.020;2023-04-01T14:01:37;3.27;;;3.07;;
5742;SDS011;2896;53.500;10.020;2023-04-01T14:07:04;3.07;;;2.80;;
5742;SDS011;2896;53.500;10.020;2023-04-01T14:09:51;4.13;;;3.50;;
5742;SDS011;2896;53.500;10.020;2023-04-01T14:12:30;11.90;;;3.73;;
5742;SDS011;2896;53.500;10.020;2023-04-01T14:15:05;3.90;;;3.47;;
5742;SDS011;2896;53.500;10.020;2023-04-01T14:18:02;3.50;;;3.30;;
5742;SDS011;2896;53.500;10.020;2023-04-01T14:20:40;4.00;;;3.70;;
5742;SDS011;2896;53.500;10.020;2023-04-01T14:23:35;3.80;;;3.50;;
5742;SDS011;2896;53.500;10.020;2023-04-01T14:26:21;5.47;;;3.97;;
5742;SDS011;2896;53.500;10.020;2023-04-01T14:28:59;5.53;;;3.23;;
5742;SDS011;2896;53.500;10.020;2023-04-01T14:31:40;6.70;;;3.47;;
5742;SDS011;2896;53.500;10.020;2023-04-01T14:34:18;5.03;;;4.00;;
5742;SDS011;2896;53.500;10.020;2023-04-01T14:36:58;7.50;;;3.93;;
5742;SDS011;2896;53.500;10.020;2023-04-01T14:39:48;5.17;;;4.20;;
5742;SDS011;2896;53.500;10.020;2023-04-01T14:42:38;8.60;;;4.57;;
5742;SDS011;2896;53.500;10.020;2023-04-01T14:45:29;4.93;;;4.20;;
5742;SDS011;2896;53.500;10.020;2023-04-01T14:48:15;5.83;;;4.27;;
5742;SDS011;2896;53.500;10.020;2023-04-01T14:50:50;5.00;;;4.40;;
5742;SDS011;2896;53.500;10.020;2023-04-01T14:53:24;7.03;;;5.80;;
5742;SDS011;2896;53.500;10.020;2023-04-01T14:55:54;9.93;;;4.87;;
5742;SDS011;2896;53.500;10.020;2023-04-01T14:58:23;8.57;;;4.63;;
5742;SDS011;2896;53.500;10.020;2023-04-01T15:00:57;4.90;;;4.47;;
5742;SDS011;2896;53.500;10.020;2023-04-01T15:03:33;6.47;;;5.10;;
5742;SDS011;2896;53.500;10.020;2023-04-01T15:09:05;6.53;;;4.50;;
5742;SDS011;2896;53.500;10.020;2023-04-01T15:11:44;8.03;;;4.60;;
5742;SDS011;2896;53.500;10.020;2023-04-01T15:14:19;8.93;;;5.40;;
5742;SDS011;2896;53.500;10.020;2023-04-01T15:17:05;7.10;;;5.23;;
5742;SDS011;2896;53.500;10.020;2023-04-01T15:19:53;7.43;;;4.00;;
5742;SDS011;2896;53.500;10.020;2023-04-01T15:22:39;6.77;;;4.30;;
5742;SDS011;2896;53.500;10.020;2023-04-01T15:25:28;10.70;;;5.07;;
5742;SDS011;2896;53.500;10.020;2023-04-01T15:28:06;6.13;;;5.53;;
5742;SDS011;2896;53.500;10.020;2023-04-01T15:30:44;7.00;;;5.13;;
5742;SDS011;2896;53.500;10.020;2023-04-01T15:33:24;11.00;;;6.10;;
5742;SDS011;2896;53.500;10.020;2023-04-01T15:36:02;6.20;;;5.57;;
5742;SDS011;2896;53.500;10.020;2023-04-01T15:38:41;11.20;;;6.47;;
5742;SDS011;2896;53.500;10.020;2023-04-01T15:41:15;11.33;;;6.63;;
5742;SDS011;2896;53.500;10.020;2023-04-01T15:43:45;10.50;;;5.53;;
5742;SDS011;2896;53.500;10.020;2023-04-01T15:46:25;11.33;;;5.70;;
5742;SDS011;2896;53.500;10.020;2023-04-01T15:49:03;9.13;;;5.13;;
5742;SDS011;2896;53.500;10.020;2023-04-01T15:51:39;6.60;;;5.77;;
5742;SDS011;2896;53.500;10.020;2023-04-01T15:54:28;10.23;;;5.50;;
5742;SDS011;2896;53.500;10.020;2023-04-01T15:57:15;12.17;;;5.40;;
5742;SDS011;2896;53.500;10.020;2023-04-01T16:00:02;9.50;;;6.30;;
5742;SDS011;2896;53.500;10.020;2023-04-01T16:02:46;7.40;;;6.10;;
5742;SDS011;2896;53.500;10.020;2023-04-01T16:05:24;10.57;;;7.20;;
5742;SDS011;2896;53.500;10.020;2023-04-01T16:08:09;10.97;;;6.57;;
5742;SDS011;2896;53.500;10.020;2023-04-01T16:10:52;10.20;;;6.80;;
5742;SDS011;2896;53.500;10.020;2023-04-01T16:13:42;10.10;;;6.83;;
5742;SDS011;2896;53.500;10.020;2023-04-01T16:16:19;9.53;;;6.20;;
5742;SDS011;2896;53.500;10.020;2023-04-01T16:19:04;8.43;;;6.10;;
5742;SDS011;2896;53.500;10.020;2023-04-01T16:21:42;11.20;;;6.10;;
5742;SDS011;2896;53.500;10.020;2023-04-01T16:24:15;10.80;;;6.50;;
5742;SDS011;2896;53.500;10.020;2023-04-01T16:26:52;22.70;;;7.47;;
5742;SDS011;2896;53.500;10.020;2023-04-01T16:29:27;11.43;;;6.30;;
5742;SDS011;2896;53.500;10.020;2023-04-01T16:32:04;7.30;;;6.30;;
5742;SDS011;2896;53.500;10.020;2023-04-01T16:34:43;6.70;;;5.60;;
5742;SDS011;2896;53.500;10.020;2023-04-01T16:37:15;10.93;;;6.00;;
5742;SDS011;2896;53.500;10.020;2023-04-01T16:39:47;16.70;;;7.20;;
5742;SDS011;2896;53.500;10.020;2023-04-01T16:42:23;11.67;;;6.20;;
5742;SDS011;2896;53.500;10.020;2023-04-01T16:44:59;13.90;;;7.07;;
5742;SDS011;2896;53.500;10.020;2023-04-01T16:47:35;6.40;;;4.93;;
5742;SDS011;2896;53.500;10.020;2023-04-01T16:50:07;9.77;;;7.00;;
5742;SDS011;2896;53.500;10.020;2023-04-01T16:52:48;15.57;;;6.07;;
5742;SDS011;2896;53.500;10.020;2023-04-01T16:55:24;8.30;;;5.90;;
5742;SDS011;2896;53.500;10.020;2023-04-01T16:58:02;11.80;;;6.50;;
5742;SDS011;2896;53.500;10.020;2023-04-01T17:00:30;14.20;;;5.33;;
5742;SDS011;2896;53.500;10.020;2023-04-01T17:03:07;12.93;;;7.37;;